sensor_id;sensor_type;location;lat;lon;timestamp;P1;durP1;ratioP1;P2;durP2;ratioP2
56830;SDS011;42713;42.676;23.352;2023-07-31T00:01:34;6.70;;;2.60;;
56830;SDS011;42713;42.676;23.352;2023-07-31T00:04:00;5.78;;;2.55;;
56830;SDS011;42713;42.676;23.352;2023-07-31T00:06:25;7.15;;;2.83;;
56830;SDS011;42713;42.676;23.352;2023-07-31T00:08:51;6.38;;;2.50;;
56830;SDS011;42713;42.676;23.352;2023-07-31T00:11:16;6.38;;;2.63;;
56830;SDS011;42713;42.676;23.352;2023-07-31T00:13:42;8.05;;;2.58;;
56830;SDS011;42713;42.676;23.352;2023-07-31T00:16:07;7.45;;;2.60;;
56830;SDS011;42713;42.676;23.352;2023-07-31T00:18:33;6.10;;;2.55;;
56830;SDS011;42713;42.676;23.352;2023-07-31T00:20:58;7.57;;;3.03;;
56830;SDS011;42713;42.676;23.352;2023-07-31T00:23:24;7.05;;;2.58;;
56830;SDS011;42713;42.676;23.352;2023-07-31T00:25:49;9.07;;;2.80;;
56830;SDS011;42713;42.676;23.352;2023-07-31T00:28:14;7.65;;;2.90;;
56830;SDS011;42713;42.676;23.352;2023-07-31T00:30:40;5.85;;;2.67;;
56830;SDS011;42713;42.676;23.352;2023-07-31T00:33:05;7.13;;;2.72;;
56830;SDS011;42713;42.676;23.352;2023-07-31T00:35:31;8.30;;;2.80;;
56830;SDS011;42713;42.676;23.352;2023-07-31T00:37:57;6.60;;;2.88;;
56830;SDS011;42713;42.676;23.352;2023-07-31T00:40:23;6.55;;;3.30;;
56830;SDS011;42713;42.676;23.352;2023-07-31T00:42:49;7.60;;;3.20;;
56830;SDS011;42713;42.676;23.352;2023-07-31T00:45:14;6.93;;;3.00;;
56830;SDS011;42713;42.676;23.352;2023-07-31T00:47:40;6.28;;;3.15;;
56830;SDS011;42713;42.676;23.352;2023-07-31T00:50:06;7.88;;;3.53;;
56830;SDS011;42713;42.676;23.352;2023-07-31T00:52:32;8.13;;;3.88;;
56830;SDS011;42713;42.676;23.352;2023-07-31T00:54:57;8.05;;;3.42;;
56830;SDS011;42713;42.676;23.352;2023-07-31T00:57:23;7.68;;;4.22;;
56830;SDS011;42713;42.676;23.352;2023-07-31T00:59:49;8.65;;;4.93;;
56830;SDS011;42713;42.676;23.352;2023-07-31T01:02:15;8.40;;;5.13;;
56830;SDS011;42713;42.676;23.352;2023-07-31T01:04:41;10.02;;;5.95;;
56830;SDS011;42713;42.676;23.352;2023-07-31T01:07:20;11.52;;;5.93;;
56830;SDS011;42713;42.676;23.352;2023-07-31T01:09:57;11.48;;;6.07;;
56830;SDS011;42713;42.676;23.352;2023-07-31T01:12:41;9.52;;;6.00;;
56830;SDS011;42713;42.676;23.352;2023-07-31T01:15:08;8.95;;;5.88;;
56830;SDS011;42713;42.676;23.352;2023-07-31T01:17:39;10.15;;;6.90;;
56830;SDS011;42713;42.676;23.352;2023-07-31T01:20:22;11.90;;;7.18;;
56830;SDS011;42713;42.676;23.352;2023-07-31T01:25:56;11.10;;;7.20;;
56830;SDS011;42713;42.676;23.352;2023-07-31T01:28:28;11.95;;;8.25;;
56830;SDS011;42713;42.676;23.352;2023-07-31T01:30:58;17.10;;;8.70;;
56830;SDS011;42713;42.676;23.352;2023-07-31T01:33:25;13.18;;;9.20;;
56830;SDS011;42713;42.676;23.352;2023-07-31T01:35:51;12.35;;;9.35;;
56830;SDS011;42713;42.676;23.352;2023-07-31T01:38:20;13.00;;;9.98;;
56830;SDS011;42713;42.676;23.352;2023-07-31T01:40:50;15.23;;;11.30;;
56830;SDS011;42713;42.676;23.352;2023-07-31T01:43:17;16.93;;;11.60;;
56830;SDS011;42713;42.676;23.352;2023-07-31T01:45:42;18.00;;;11.60;;
56830;SDS011;42713;42.676;23.352;2023-07-31T01:48:08;15.48;;;11.80;;
56830;SDS011;42713;42.676;23.352;2023-07-31T01:50:33;18.67;;;13.20;;
56830;SDS011;42713;42.676;23.352;2023-07-31T01:52:58;16.70;;;13.80;;
56830;SDS011;42713;42.676;23.352;2023-07-31T01:55:24;18.65;;;13.98;;
56830;SDS011;42713;42.676;23.352;2023-07-31T01:57:49;17.30;;;13.88;;
56830;SDS011;42713;42.676;23.352;2023-07-31T02:00:15;17.33;;;14.43;;
56830;SDS011;42713;42.676;23.352;2023-07-31T02:02:41;19.83;;;15.07;;
56830;SDS011;42713;42.676;23.352;2023-07-31T02:05:06;19.55;;;15.10;;
56830;SDS011;42713;42.676;23.352;2023-07-31T02:07:32;19.05;;;15.48;;
56830;SDS011;42713;42.676;23.352;2023-07-31T02:09:57;19.75;;;15.45;;
56830;SDS011;42713;42.676;23.352;2023-07-31T02:12:26;19.17;;;15.65;;
56830;SDS011;42713;42.676;23.352;2023-07-31T02:14:51;19.48;;;15.95;;
56830;SDS011;42713;42.676;23.352;2023-07-31T02:17:17;23.45;;;16.83;;
56830;SDS011;42713;42.676;23.352;2023-07-31T02:19:42;20.70;;;16.08;;
56830;SDS011;42713;42.676;23.352;2023-07-31T02:22:08;19.52;;;16.13;;
56830;SDS011;42713;42.676;23.352;2023-07-31T02:24:33;19.98;;;16.38;;
56830;SDS011;42713;42.676;23.352;2023-07-31T02:26:59;20.70;;;15.80;;
56830;SDS011;42713;42.676;23.352;2023-07-31T02:29:24;20.95;;;17.10;;
56830;SDS011;42713;42.676;23.352;2023-07-31T02:31:50;19.92;;;15.93;;
56830;SDS011;42713;42.676;23.352;2023-07-31T02:34:15;19.48;;;16.17;;
56830;SDS011;42713;42.676;23.352;2023-07-31T02:36:41;20.05;;;16.50;;
56830;SDS011;42713;42.676;23.352;2023-07-31T02:39:06;20.83;;;16.98;;
56830;SDS011;42713;42.676;23.352;2023-07-31T02:41:32;21.70;;;17.02;;
56830;SDS011;42713;42.676;23.352;2023-07-31T02:43:57;22.58;;;17.17;;
56830;SDS011;42713;42.676;23.352;2023-07-31T02:46:23;20.63;;;16.70;;
56830;SDS011;42713;42.676;23.352;2023-07-31T02:48:49;20.58;;;17.25;;
56830;SDS011;42713;42.676;23.352;2023-07-31T02:51:16;21.00;;;17.63;;
56830;SDS011;42713;42.676;23.352;2023-07-31T02:53:41;22.55;;;18.30;;
56830;SDS011;42713;42.676;23.352;2023-07-31T02:56:06;20.52;;;16.70;;
56830;SDS011;42713;42.676;23.352;2023-07-31T02:58:32;20.77;;;17.30;;
56830;SDS011;42713;42.676;23.352;2023-07-31T03:00:58;20.40;;;16.33;;
56830;SDS011;42713;42.676;23.352;2023-07-31T03:03:24;20.67;;;16.80;;
56830;SDS011;42713;42.676;23.352;2023-07-31T03:05:49;19.80;;;16.23;;
56830;SDS011;42713;42.676;23.352;2023-07-31T03:08:15;21.08;;;17.63;;
56830;SDS011;42713;42.676;23.352;2023-07-31T03:10:40;22.52;;;17.30;;
56830;SDS011;42713;42.676;23.352;2023-07-31T03:13:06;20.63;;;16.88;;
56830;SDS011;42713;42.676;23.352;2023-07-31T03:15:32;21.90;;;17.52;;
56830;SDS011;42713;42.676;23.352;2023-07-31T03:17:57;21.58;;;17.35;;
56830;SDS011;42713;42.676;23.352;2023-07-31T03:20:24;21.85;;;17.40;;
56830;SDS011;42713;42.676;23.352;2023-07-31T03:22:49;22.58;;;17.20;;
56830;SDS011;42713;42.676;23.352;2023-07-31T03:25:14;21.52;;;17.63;;
56830;SDS011;42713;42.676;23.352;2023-07-31T03:27:42;21.63;;;17.33;;
56830;SDS011;42713;42.676;23.352;2023-07-31T03:30:07;20.55;;;16.70;;
56830;SDS011;42713;42.676;23.352;2023-07-31T03:32:39;23.00;;;17.98;;
56830;SDS011;42713;42.676;23.352;2023-07-31T03:35:04;20.17;;;16.80;;
56830;SDS011;42713;42.676;23.352;2023-07-31T03:37:30;21.88;;;18.02;;
56830;SDS011;42713;42.676;23.352;2023-07-31T03:39:56;21.92;;;17.88;;
56830;SDS011;42713;42.676;23.352;2023-07-31T03:42:22;22.40;;;17.77;;
56830;SDS011;42713;42.676;23.352;2023-07-31T03:44:47;25.83;;;18.33;;
56830;SDS011;42713;42.676;23.352;2023-07-31T03:47:13;23.85;;;17.48;;
56830;SDS011;42713;42.676;23.352;2023-07-31T03:49:38;22.55;;;17.83;;
56830;SDS011;42713;42.676;23.352;2023-07-31T03:52:04;25.58;;;19.30;;
56830;SDS011;42713;42.676;23.352;2023-07-31T03:54:30;26.45;;;18.33;;
56830;SDS011;42713;42.676;23.352;2023-07-31T03:56:55;23.10;;;18.90;;
56830;SDS011;42713;42.676;23.352;2023-07-31T03:59:21;23.42;;;18.38;;
56830;SDS011;42713;42.676;23.352;2023-07-31T04:01:46;26.00;;;19.15;;
56830;SDS011;42713;42.676;23.352;2023-07-31T04:04:12;25.40;;;18.55;;
56830;SDS011;42713;42.676;23.352;2023-07-31T04:06:37;23.33;;;18.02;;
56830;SDS011;42713;42.676;23.352;2023-07-31T04:09:03;24.15;;;20.00;;
56830;SDS011;42713;42.676;23.352;2023-07-31T04:11:28;25.30;;;20.02;;
56830;SDS011;42713;42.676;23.352;2023-07-31T04:13:53;25.55;;;20.13;;
56830;SDS011;42713;42.676;23.352;2023-07-31T04:16:19;23.83;;;19.88;;
56830;SDS011;42713;42.676;23.352;2023-07-31T04:18:45;26.15;;;20.67;;
56830;SDS011;42713;42.676;23.352;2023-07-31T04:21:10;24.98;;;20.10;;
56830;SDS011;42713;42.676;23.352;2023-07-31T04:23:35;24.95;;;20.40;;
56830;SDS011;42713;42.676;23.352;2023-07-31T04:26:01;26.90;;;21.40;;
56830;SDS011;42713;42.676;23.352;2023-07-31T04:28:26;23.10;;;19.52;;
56830;SDS011;42713;42.676;23.352;2023-07-31T04:30:52;26.80;;;19.98;;
56830;SDS011;42713;42.676;23.352;2023-07-31T04:33:18;25.80;;;19.73;;
56830;SDS011;42713;42.676;23.352;2023-07-31T04:35:54;26.38;;;19.50;;
56830;SDS011;42713;42.676;23.352;2023-07-31T04:38:20;25.52;;;20.52;;
56830;SDS011;42713;42.676;23.352;2023-07-31T04:40:46;25.85;;;19.85;;
56830;SDS011;42713;42.676;23.352;2023-07-31T04:43:12;24.10;;;19.55;;
56830;SDS011;42713;42.676;23.352;2023-07-31T04:45:37;24.77;;;18.50;;
56830;SDS011;42713;42.676;23.352;2023-07-31T04:48:03;24.80;;;18.83;;
56830;SDS011;42713;42.676;23.352;2023-07-31T04:50:29;24.92;;;19.23;;
56830;SDS011;42713;42.676;23.352;2023-07-31T04:52:56;24.77;;;19.13;;
56830;SDS011;42713;42.676;23.352;2023-07-31T04:55:21;26.38;;;20.17;;
56830;SDS011;42713;42.676;23.352;2023-07-31T04:57:47;24.40;;;19.05;;
56830;SDS011;42713;42.676;23.352;2023-07-31T05:00:17;25.17;;;18.15;;
56830;SDS011;42713;42.676;23.352;2023-07-31T05:02:42;21.23;;;17.02;;
56830;SDS011;42713;42.676;23.352;2023-07-31T05:05:08;23.73;;;18.95;;
56830;SDS011;42713;42.676;23.352;2023-07-31T05:07:34;25.73;;;19.60;;
56830;SDS011;42713;42.676;23.352;2023-07-31T05:10:00;22.40;;;17.33;;
56830;SDS011;42713;42.676;23.352;2023-07-31T05:12:39;22.25;;;17.70;;
56830;SDS011;42713;42.676;23.352;2023-07-31T05:15:04;21.55;;;17.50;;
56830;SDS011;42713;42.676;23.352;2023-07-31T05:17:30;22.25;;;17.15;;
56830;SDS011;42713;42.676;23.352;2023-07-31T05:19:55;21.33;;;16.75;;
56830;SDS011;42713;42.676;23.352;2023-07-31T05:22:21;19.08;;;15.70;;
56830;SDS011;42713;42.676;23.352;2023-07-31T05:24:46;20.75;;;16.42;;
56830;SDS011;42713;42.676;23.352;2023-07-31T05:27:12;20.55;;;15.02;;
56830;SDS011;42713;42.676;23.352;2023-07-31T05:29:40;16.75;;;13.75;;
56830;SDS011;42713;42.676;23.352;2023-07-31T05:32:06;18.83;;;14.07;;
56830;SDS011;42713;42.676;23.352;2023-07-31T05:34:31;17.27;;;12.82;;
56830;SDS011;42713;42.676;23.352;2023-07-31T05:36:57;18.23;;;13.35;;
56830;SDS011;42713;42.676;23.352;2023-07-31T05:39:22;21.80;;;13.77;;
56830;SDS011;42713;42.676;23.352;2023-07-31T05:41:48;17.80;;;12.90;;
56830;SDS011;42713;42.676;23.352;2023-07-31T05:44:13;16.00;;;12.13;;
56830;SDS011;42713;42.676;23.352;2023-07-31T05:46:39;16.95;;;11.65;;
56830;SDS011;42713;42.676;23.352;2023-07-31T05:49:04;14.27;;;10.07;;
56830;SDS011;42713;42.676;23.352;2023-07-31T05:51:30;14.30;;;9.65;;
56830;SDS011;42713;42.676;23.352;2023-07-31T05:53:55;12.90;;;9.65;;
56830;SDS011;42713;42.676;23.352;2023-07-31T05:56:21;13.30;;;9.52;;
56830;SDS011;42713;42.676;23.352;2023-07-31T05:58:46;16.83;;;10.13;;
56830;SDS011;42713;42.676;23.352;2023-07-31T06:01:15;12.68;;;8.93;;
56830;SDS011;42713;42.676;23.352;2023-07-31T06:03:41;13.27;;;8.25;;
56830;SDS011;42713;42.676;23.352;2023-07-31T06:06:06;11.70;;;8.43;;
56830;SDS011;42713;42.676;23.352;2023-07-31T06:08:31;11.85;;;7.97;;
56830;SDS011;42713;42.676;23.352;2023-07-31T06:10:57;11.07;;;7.72;;
56830;SDS011;42713;42.676;23.352;2023-07-31T06:13:23;12.63;;;7.70;;
56830;SDS011;42713;42.676;23.352;2023-07-31T06:15:48;10.38;;;6.38;;
56830;SDS011;42713;42.676;23.352;2023-07-31T06:18:14;11.35;;;6.07;;
56830;SDS011;42713;42.676;23.352;2023-07-31T06:20:39;10.02;;;6.10;;
56830;SDS011;42713;42.676;23.352;2023-07-31T06:23:05;15.15;;;6.18;;
56830;SDS011;42713;42.676;23.352;2023-07-31T06:25:31;10.13;;;5.57;;
56830;SDS011;42713;42.676;23.352;2023-07-31T06:27:56;9.93;;;5.47;;
56830;SDS011;42713;42.676;23.352;2023-07-31T06:30:24;9.50;;;5.00;;
56830;SDS011;42713;42.676;23.352;2023-07-31T06:32:49;9.18;;;5.45;;
56830;SDS011;42713;42.676;23.352;2023-07-31T06:35:15;10.25;;;5.15;;
56830;SDS011;42713;42.676;23.352;2023-07-31T06:37:40;9.80;;;4.95;;
56830;SDS011;42713;42.676;23.352;2023-07-31T06:40:09;8.98;;;5.05;;
56830;SDS011;42713;42.676;23.352;2023-07-31T06:42:35;9.07;;;4.85;;
56830;SDS011;42713;42.676;23.352;2023-07-31T06:45:01;9.23;;;4.70;;
56830;SDS011;42713;42.676;23.352;2023-07-31T06:47:27;8.73;;;4.50;;
56830;SDS011;42713;42.676;23.352;2023-07-31T06:49:52;7.72;;;4.35;;
56830;SDS011;42713;42.676;23.352;2023-07-31T06:52:18;10.07;;;4.20;;
56830;SDS011;42713;42.676;23.352;2023-07-31T06:54:44;7.90;;;4.45;;
56830;SDS011;42713;42.676;23.352;2023-07-31T06:57:09;7.75;;;4.43;;
56830;SDS011;42713;42.676;23.352;2023-07-31T06:59:34;9.05;;;4.07;;
56830;SDS011;42713;42.676;23.352;2023-07-31T07:02:00;8.23;;;3.78;;
56830;SDS011;42713;42.676;23.352;2023-07-31T07:04:25;9.88;;;4.20;;
56830;SDS011;42713;42.676;23.352;2023-07-31T07:06:51;7.65;;;3.92;;
56830;SDS011;42713;42.676;23.352;2023-07-31T07:09:17;7.05;;;3.60;;
56830;SDS011;42713;42.676;23.352;2023-07-31T07:11:43;8.90;;;3.92;;
56830;SDS011;42713;42.676;23.352;2023-07-31T07:14:08;9.65;;;3.30;;
56830;SDS011;42713;42.676;23.352;2023-07-31T07:16:35;7.68;;;3.63;;
56830;SDS011;42713;42.676;23.352;2023-07-31T07:19:00;7.30;;;3.47;;
56830;SDS011;42713;42.676;23.352;2023-07-31T07:21:26;7.97;;;3.80;;
56830;SDS011;42713;42.676;23.352;2023-07-31T07:23:51;6.88;;;3.60;;
56830;SDS011;42713;42.676;23.352;2023-07-31T07:26:18;7.18;;;3.58;;
56830;SDS011;42713;42.676;23.352;2023-07-31T07:28:45;7.72;;;3.35;;
56830;SDS011;42713;42.676;23.352;2023-07-31T07:31:10;6.65;;;3.35;;
56830;SDS011;42713;42.676;23.352;2023-07-31T07:33:36;7.40;;;3.10;;
56830;SDS011;42713;42.676;23.352;2023-07-31T07:36:01;9.90;;;3.38;;
56830;SDS011;42713;42.676;23.352;2023-07-31T07:38:29;7.63;;;3.33;;
56830;SDS011;42713;42.676;23.352;2023-07-31T07:40:54;10.52;;;3.33;;
56830;SDS011;42713;42.676;23.352;2023-07-31T07:43:20;7.25;;;3.30;;
56830;SDS011;42713;42.676;23.352;2023-07-31T07:45:45;8.50;;;3.70;;
56830;SDS011;42713;42.676;23.352;2023-07-31T07:48:11;9.02;;;3.50;;
56830;SDS011;42713;42.676;23.352;2023-07-31T07:50:38;8.50;;;3.42;;
56830;SDS011;42713;42.676;23.352;2023-07-31T07:53:03;8.80;;;3.70;;
56830;SDS011;42713;42.676;23.352;2023-07-31T07:55:29;8.20;;;3.22;;
56830;SDS011;42713;42.676;23.352;2023-07-31T07:57:54;7.88;;;3.13;;
56830;SDS011;42713;42.676;23.352;2023-07-31T08:00:20;6.05;;;3.00;;
56830;SDS011;42713;42.676;23.352;2023-07-31T08:02:46;8.25;;;2.97;;
56830;SDS011;42713;42.676;23.352;2023-07-31T08:05:11;6.80;;;3.17;;
56830;SDS011;42713;42.676;23.352;2023-07-31T08:07:37;8.60;;;3.08;;
56830;SDS011;42713;42.676;23.352;2023-07-31T08:10:06;7.05;;;3.38;;
56830;SDS011;42713;42.676;23.352;2023-07-31T08:12:31;7.68;;;2.95;;
56830;SDS011;42713;42.676;23.352;2023-07-31T08:14:57;6.30;;;2.97;;
56830;SDS011;42713;42.676;23.352;2023-07-31T08:17:22;6.93;;;3.13;;
56830;SDS011;42713;42.676;23.352;2023-07-31T08:19:48;5.60;;;2.58;;
56830;SDS011;42713;42.676;23.352;2023-07-31T08:22:13;11.68;;;3.38;;
56830;SDS011;42713;42.676;23.352;2023-07-31T08:24:42;6.28;;;2.80;;
56830;SDS011;42713;42.676;23.352;2023-07-31T08:27:07;7.38;;;3.00;;
56830;SDS011;42713;42.676;23.352;2023-07-31T08:29:32;6.75;;;2.75;;
56830;SDS011;42713;42.676;23.352;2023-07-31T08:31:58;7.53;;;2.92;;
56830;SDS011;42713;42.676;23.352;2023-07-31T08:34:23;8.25;;;3.38;;
56830;SDS011;42713;42.676;23.352;2023-07-31T08:36:50;7.88;;;3.00;;
56830;SDS011;42713;42.676;23.352;2023-07-31T08:39:15;7.43;;;3.67;;
56830;SDS011;42713;42.676;23.352;2023-07-31T08:41:41;9.45;;;3.08;;
56830;SDS011;42713;42.676;23.352;2023-07-31T08:44:06;7.00;;;3.38;;
56830;SDS011;42713;42.676;23.352;2023-07-31T08:46:32;6.75;;;2.92;;
56830;SDS011;42713;42.676;23.352;2023-07-31T08:48:59;10.18;;;2.88;;
56830;SDS011;42713;42.676;23.352;2023-07-31T08:51:25;8.30;;;2.92;;
56830;SDS011;42713;42.676;23.352;2023-07-31T08:53:52;7.90;;;3.05;;
56830;SDS011;42713;42.676;23.352;2023-07-31T08:56:18;8.38;;;2.97;;
56830;SDS011;42713;42.676;23.352;2023-07-31T08:58:44;6.75;;;3.00;;
56830;SDS011;42713;42.676;23.352;2023-07-31T09:01:12;8.43;;;3.35;;
56830;SDS011;42713;42.676;23.352;2023-07-31T09:03:42;7.15;;;3.05;;
56830;SDS011;42713;42.676;23.352;2023-07-31T09:06:09;7.15;;;2.50;;
56830;SDS011;42713;42.676;23.352;2023-07-31T09:08:36;8.25;;;2.90;;
56830;SDS011;42713;42.676;23.352;2023-07-31T09:11:07;9.23;;;2.65;;
56830;SDS011;42713;42.676;23.352;2023-07-31T09:13:32;6.78;;;2.83;;
56830;SDS011;42713;42.676;23.352;2023-07-31T09:15:58;7.20;;;2.70;;
56830;SDS011;42713;42.676;23.352;2023-07-31T09:18:24;7.88;;;3.22;;
56830;SDS011;42713;42.676;23.352;2023-07-31T09:23:43;8.30;;;2.70;;
56830;SDS011;42713;42.676;23.352;2023-07-31T09:26:11;8.13;;;2.65;;
56830;SDS011;42713;42.676;23.352;2023-07-31T09:28:53;6.40;;;2.50;;
56830;SDS011;42713;42.676;23.352;2023-07-31T09:31:31;6.07;;;2.67;;
56830;SDS011;42713;42.676;23.352;2023-07-31T09:34:06;9.18;;;2.83;;
56830;SDS011;42713;42.676;23.352;2023-07-31T09:36:32;6.72;;;2.90;;
56830;SDS011;42713;42.676;23.352;2023-07-31T09:39:04;8.35;;;2.80;;
56830;SDS011;42713;42.676;23.352;2023-07-31T09:41:30;7.10;;;2.83;;
56830;SDS011;42713;42.676;23.352;2023-07-31T09:43:56;7.65;;;2.85;;
56830;SDS011;42713;42.676;23.352;2023-07-31T09:46:22;7.57;;;2.75;;
56830;SDS011;42713;42.676;23.352;2023-07-31T09:48:48;7.45;;;2.90;;
56830;SDS011;42713;42.676;23.352;2023-07-31T09:51:13;8.60;;;2.40;;
56830;SDS011;42713;42.676;23.352;2023-07-31T09:53:39;5.78;;;2.65;;
56830;SDS011;42713;42.676;23.352;2023-07-31T09:56:04;10.52;;;3.03;;
56830;SDS011;42713;42.676;23.352;2023-07-31T09:58:30;4.88;;;2.40;;
56830;SDS011;42713;42.676;23.352;2023-07-31T10:01:00;5.18;;;2.40;;
56830;SDS011;42713;42.676;23.352;2023-07-31T10:03:27;6.50;;;2.40;;
56830;SDS011;42713;42.676;23.352;2023-07-31T10:05:57;4.90;;;2.13;;
56830;SDS011;42713;42.676;23.352;2023-07-31T10:08:26;5.40;;;2.25;;
56830;SDS011;42713;42.676;23.352;2023-07-31T10:10:55;5.97;;;2.38;;
56830;SDS011;42713;42.676;23.352;2023-07-31T10:13:24;5.00;;;2.05;;
56830;SDS011;42713;42.676;23.352;2023-07-31T10:15:50;4.15;;;2.08;;
56830;SDS011;42713;42.676;23.352;2023-07-31T10:18:16;6.18;;;2.20;;
56830;SDS011;42713;42.676;23.352;2023-07-31T10:20:44;5.95;;;2.20;;
56830;SDS011;42713;42.676;23.352;2023-07-31T10:23:10;7.55;;;2.30;;
56830;SDS011;42713;42.676;23.352;2023-07-31T10:25:37;7.88;;;2.20;;
56830;SDS011;42713;42.676;23.352;2023-07-31T10:28:03;8.93;;;2.45;;
56830;SDS011;42713;42.676;23.352;2023-07-31T10:30:30;5.20;;;1.90;;
56830;SDS011;42713;42.676;23.352;2023-07-31T10:35:25;5.82;;;2.00;;
56830;SDS011;42713;42.676;23.352;2023-07-31T10:37:52;6.07;;;2.03;;
56830;SDS011;42713;42.676;23.352;2023-07-31T10:40:18;6.05;;;2.20;;
56830;SDS011;42713;42.676;23.352;2023-07-31T10:47:57;4.32;;;1.70;;
56830;SDS011;42713;42.676;23.352;2023-07-31T10:50:27;5.45;;;1.98;;
56830;SDS011;42713;42.676;23.352;2023-07-31T10:52:56;5.18;;;1.88;;
56830;SDS011;42713;42.676;23.352;2023-07-31T10:58:06;4.97;;;1.90;;
56830;SDS011;42713;42.676;23.352;2023-07-31T11:00:33;4.00;;;1.88;;
56830;SDS011;42713;42.676;23.352;2023-07-31T11:03:09;6.95;;;2.00;;
56830;SDS011;42713;42.676;23.352;2023-07-31T11:05:43;5.30;;;2.00;;
56830;SDS011;42713;42.676;23.352;2023-07-31T11:08:23;5.20;;;2.20;;
56830;SDS011;42713;42.676;23.352;2023-07-31T11:13:31;9.43;;;1.70;;
56830;SDS011;42713;42.676;23.352;2023-07-31T11:15:58;3.38;;;1.50;;
56830;SDS011;42713;42.676;23.352;2023-07-31T11:18:25;4.28;;;1.77;;
56830;SDS011;42713;42.676;23.352;2023-07-31T11:20:53;6.68;;;1.70;;
56830;SDS011;42713;42.676;23.352;2023-07-31T11:23:20;9.13;;;1.92;;
56830;SDS011;42713;42.676;23.352;2023-07-31T11:25:46;5.28;;;1.90;;
56830;SDS011;42713;42.676;23.352;2023-07-31T11:28:13;9.68;;;1.90;;
56830;SDS011;42713;42.676;23.352;2023-07-31T11:30:39;4.45;;;1.92;;
56830;SDS011;42713;42.676;23.352;2023-07-31T11:33:06;3.65;;;1.67;;
56830;SDS011;42713;42.676;23.352;2023-07-31T11:35:33;5.60;;;2.10;;
56830;SDS011;42713;42.676;23.352;2023-07-31T11:37:59;6.25;;;1.70;;
56830;SDS011;42713;42.676;23.352;2023-07-31T11:40:26;4.07;;;1.75;;
56830;SDS011;42713;42.676;23.352;2023-07-31T11:43:03;4.72;;;1.85;;
56830;SDS011;42713;42.676;23.352;2023-07-31T11:45:29;7.05;;;1.80;;
56830;SDS011;42713;42.676;23.352;2023-07-31T11:47:55;5.65;;;2.20;;
56830;SDS011;42713;42.676;23.352;2023-07-31T11:50:22;4.30;;;2.08;;
56830;SDS011;42713;42.676;23.352;2023-07-31T11:52:52;6.75;;;2.15;;
56830;SDS011;42713;42.676;23.352;2023-07-31T11:55:24;6.03;;;2.50;;
56830;SDS011;42713;42.676;23.352;2023-07-31T11:57:51;4.80;;;2.20;;
56830;SDS011;42713;42.676;23.352;2023-07-31T12:00:19;6.22;;;2.40;;
56830;SDS011;42713;42.676;23.352;2023-07-31T12:02:45;5.55;;;2.47;;
56830;SDS011;42713;42.676;23.352;2023-07-31T12:05:11;11.90;;;2.75;;
56830;SDS011;42713;42.676;23.352;2023-07-31T12:07:48;6.55;;;2.42;;
56830;SDS011;42713;42.676;23.352;2023-07-31T12:12:56;7.60;;;2.70;;
56830;SDS011;42713;42.676;23.352;2023-07-31T12:15:45;6.57;;;2.60;;
56830;SDS011;42713;42.676;23.352;2023-07-31T12:18:10;6.13;;;2.72;;
56830;SDS011;42713;42.676;23.352;2023-07-31T12:20:43;8.07;;;2.70;;
56830;SDS011;42713;42.676;23.352;2023-07-31T12:25:40;8.70;;;3.75;;
56830;SDS011;42713;42.676;23.352;2023-07-31T12:28:07;7.80;;;3.60;;
56830;SDS011;42713;42.676;23.352;2023-07-31T12:30:37;7.55;;;4.00;;
56830;SDS011;42713;42.676;23.352;2023-07-31T12:33:07;7.82;;;4.30;;
56830;SDS011;42713;42.676;23.352;2023-07-31T12:35:43;7.93;;;4.30;;
56830;SDS011;42713;42.676;23.352;2023-07-31T12:38:10;7.60;;;4.18;;
56830;SDS011;42713;42.676;23.352;2023-07-31T12:40:37;7.90;;;4.30;;
56830;SDS011;42713;42.676;23.352;2023-07-31T12:43:04;6.60;;;3.45;;
56830;SDS011;42713;42.676;23.352;2023-07-31T12:45:30;7.95;;;4.00;;
56830;SDS011;42713;42.676;23.352;2023-07-31T12:48:00;8.00;;;3.90;;
56830;SDS011;42713;42.676;23.352;2023-07-31T12:50:26;8.95;;;3.92;;
56830;SDS011;42713;42.676;23.352;2023-07-31T12:53:09;7.20;;;4.00;;
56830;SDS011;42713;42.676;23.352;2023-07-31T12:58:03;8.55;;;4.53;;
56830;SDS011;42713;42.676;23.352;2023-07-31T13:00:29;8.73;;;4.35;;
56830;SDS011;42713;42.676;23.352;2023-07-31T13:02:59;11.43;;;4.50;;
56830;SDS011;42713;42.676;23.352;2023-07-31T13:05:28;9.50;;;4.50;;
56830;SDS011;42713;42.676;23.352;2023-07-31T13:07:56;8.68;;;4.88;;
56830;SDS011;42713;42.676;23.352;2023-07-31T13:10:22;12.05;;;5.63;;
56830;SDS011;42713;42.676;23.352;2023-07-31T13:12:48;9.50;;;4.85;;
56830;SDS011;42713;42.676;23.352;2023-07-31T13:15:14;8.20;;;4.50;;
56830;SDS011;42713;42.676;23.352;2023-07-31T13:17:41;7.85;;;4.40;;
56830;SDS011;42713;42.676;23.352;2023-07-31T13:20:06;7.85;;;4.32;;
56830;SDS011;42713;42.676;23.352;2023-07-31T13:22:33;7.70;;;4.63;;
56830;SDS011;42713;42.676;23.352;2023-07-31T13:24:59;7.72;;;4.10;;
56830;SDS011;42713;42.676;23.352;2023-07-31T13:27:25;9.30;;;4.90;;
56830;SDS011;42713;42.676;23.352;2023-07-31T13:29:51;9.05;;;4.05;;
56830;SDS011;42713;42.676;23.352;2023-07-31T13:32:17;9.52;;;4.22;;
56830;SDS011;42713;42.676;23.352;2023-07-31T13:34:44;8.88;;;3.10;;
56830;SDS011;42713;42.676;23.352;2023-07-31T13:37:16;8.38;;;4.00;;
56830;SDS011;42713;42.676;23.352;2023-07-31T13:39:43;7.10;;;3.63;;
56830;SDS011;42713;42.676;23.352;2023-07-31T13:42:08;7.00;;;3.60;;
56830;SDS011;42713;42.676;23.352;2023-07-31T13:44:40;8.27;;;4.10;;
56830;SDS011;42713;42.676;23.352;2023-07-31T13:47:08;6.68;;;3.67;;
56830;SDS011;42713;42.676;23.352;2023-07-31T13:49:35;7.93;;;3.53;;
56830;SDS011;42713;42.676;23.352;2023-07-31T13:52:07;10.00;;;3.83;;
56830;SDS011;42713;42.676;23.352;2023-07-31T13:54:32;8.90;;;3.60;;
56830;SDS011;42713;42.676;23.352;2023-07-31T13:56:58;8.02;;;3.47;;
56830;SDS011;42713;42.676;23.352;2023-07-31T13:59:23;6.38;;;3.35;;
56830;SDS011;42713;42.676;23.352;2023-07-31T14:01:49;9.05;;;3.42;;
56830;SDS011;42713;42.676;23.352;2023-07-31T14:04:15;6.82;;;2.85;;
56830;SDS011;42713;42.676;23.352;2023-07-31T14:06:41;6.80;;;3.35;;
56830;SDS011;42713;42.676;23.352;2023-07-31T14:15:07;9.40;;;3.38;;
56830;SDS011;42713;42.676;23.352;2023-07-31T14:17:35;9.63;;;3.75;;
56830;SDS011;42713;42.676;23.352;2023-07-31T14:20:01;7.05;;;3.35;;
56830;SDS011;42713;42.676;23.352;2023-07-31T14:22:30;6.43;;;3.30;;
56830;SDS011;42713;42.676;23.352;2023-07-31T14:24:59;6.93;;;3.60;;
56830;SDS011;42713;42.676;23.352;2023-07-31T14:27:31;7.82;;;3.47;;
56830;SDS011;42713;42.676;23.352;2023-07-31T14:30:06;6.50;;;3.20;;
56830;SDS011;42713;42.676;23.352;2023-07-31T14:41:55;7.93;;;2.90;;
56830;SDS011;42713;42.676;23.352;2023-07-31T14:47:10;11.48;;;3.28;;
56830;SDS011;42713;42.676;23.352;2023-07-31T14:49:35;9.13;;;2.97;;
56830;SDS011;42713;42.676;23.352;2023-07-31T14:52:01;7.55;;;3.03;;
56830;SDS011;42713;42.676;23.352;2023-07-31T14:54:38;8.75;;;3.15;;
56830;SDS011;42713;42.676;23.352;2023-07-31T14:57:12;6.75;;;2.83;;
56830;SDS011;42713;42.676;23.352;2023-07-31T15:02:45;7.43;;;3.00;;
56830;SDS011;42713;42.676;23.352;2023-07-31T15:05:21;6.78;;;3.00;;
56830;SDS011;42713;42.676;23.352;2023-07-31T15:07:53;8.57;;;3.25;;
56830;SDS011;42713;42.676;23.352;2023-07-31T15:10:18;8.20;;;2.38;;
56830;SDS011;42713;42.676;23.352;2023-07-31T15:12:51;5.80;;;2.65;;